Time;durP1;ratioP1;P1;durP2;ratioP2;P2;SDS_P1;SDS_P2;PMS_P1;PMS_P2;Temp;Humidity;BMP_temperature;BMP_pressure;BME280_temperature;BME280_humidity;BME280_pressure;Samples;Min_cycle;Max_cycle;Signal;HPM_P1;HPM_P2
2021/10/22 00:02:17;;;;;;;1.67;1.33;;;10.70;99.90;;;;;;4753110;30;20052;-85
2021/10/22 00:04:45;;;;;;;2.20;0.68;;;10.70;99.90;;;;;;4756953;29;20044;-83
2021/10/22 00:07:22;;;;;;;4.35;1.02;;;10.60;99.90;;;;;;4738197;30;20048;-85
2021/10/22 00:09:55;;;;;;;1.48;0.90;;;10.80;99.90;;;;;;4751790;30;20056;-87
2021/10/22 00:12:23;;;;;;;2.67;2.47;;;10.60;99.90;;;;;;4738045;30;20064;-85
2021/10/22 00:14:54;;;;;;;0.95;0.65;;;10.50;99.90;;;;;;4752145;30;20438;-82
2021/10/22 00:17:23;;;;;;;0.90;0.77;;;10.40;99.90;;;;;;4752689;30;20048;-84
2021/10/22 00:19:51;;;;;;;0.95;0.70;;;10.40;99.90;;;;;;4753508;30;20055;-83
2021/10/22 00:22:22;;;;;;;8.57;1.25;;;10.40;99.90;;;;;;4736961;30;20395;-83
2021/10/22 00:24:54;;;;;;;0.65;0.65;;;10.40;99.90;;;;;;4745031;30;20053;-84
2021/10/22 00:27:24;;;;;;;8.48;0.95;;;10.40;99.90;;;;;;4753169;30;20052;-84
2021/10/22 00:29:52;;;;;;;1.33;0.95;;;10.40;99.90;;;;;;4752031;30;20056;-86
2021/10/22 00:32:20;;;;;;;2.05;0.80;;;10.40;99.90;;;;;;4753277;30;20064;-84
2021/10/22 00:34:56;;;;;;;1.23;0.85;;;10.30;99.90;;;;;;4736595;30;20643;-86
2021/10/22 00:37:30;;;;;;;0.73;0.70;;;10.30;99.90;;;;;;4753048;30;20048;-85
2021/10/22 00:40:01;;;;;;;0.50;0.50;;;10.30;99.90;;;;;;4752525;30;20064;-82
2021/10/22 00:42:31;;;;;;;8.05;1.30;;;10.30;99.90;;;;;;4752823;30;20060;-86
2021/10/22 00:45:00;;;;;;;0.67;0.57;;;10.30;99.90;;;;;;4721935;30;20044;-88
2021/10/22 00:47:31;;;;;;;1.40;0.85;;;10.30;99.90;;;;;;4752998;30;20048;-88
2021/10/22 00:50:05;;;;;;;;;;;10.30;99.90;;;;;;4737027;30;20402;-85
2021/10/22 00:52:33;;;;;;;2.97;0.75;;;10.40;99.90;;;;;;4752377;30;19948;-84
2021/10/22 00:55:14;;;;;;;1.73;0.90;;;10.30;99.90;;;;;;4723346;30;20052;-83
2021/10/22 00:57:43;;;;;;;1.63;1.45;;;10.30;99.90;;;;;;4750094;30;20067;-84
2021/10/22 01:00:26;;;;;;;0.98;0.70;;;10.30;99.90;;;;;;4753786;30;20052;-85
2021/10/22 01:02:54;;;;;;;2.45;0.50;;;10.10;99.90;;;;;;4757436;30;20048;-84
2021/10/22 01:05:22;;;;;;;4.00;1.40;;;10.00;99.90;;;;;;4768065;30;20499;-83
2021/10/22 01:07:50;;;;;;;1.00;0.73;;;10.00;99.90;;;;;;4753948;30;20051;-81
2021/10/22 01:10:21;;;;;;;1.50;0.88;;;9.90;99.90;;;;;;4753631;30;20054;-86
2021/10/22 01:12:54;;;;;;;4.35;0.70;;;9.80;99.90;;;;;;4753882;30;20058;-88
2021/10/22 01:15:52;;;;;;;4.18;0.95;;;9.60;99.90;;;;;;4769871;30;20055;-86
2021/10/22 01:18:20;;;;;;;4.63;1.38;;;9.20;99.90;;;;;;4774434;29;20062;-84
2021/10/22 01:21:15;;;;;;;0.68;0.45;;;9.10;99.90;;;;;;4774036;29;20563;-86
2021/10/22 01:24:04;;;;;;;1.70;0.90;;;8.90;99.90;;;;;;4768125;30;20067;-86
2021/10/22 01:26:46;;;;;;;;;;;;;;;;;;;;;
2021/10/22 01:29:37;;;;;;;0.80;0.80;;;8.70;99.90;;;;;;4755175;30;20051;-86
2021/10/22 01:32:37;;;;;;;1.20;0.95;;;8.70;99.90;;;;;;4769736;30;20063;-87
2021/10/22 01:35:09;;;;;;;1.38;1.10;;;8.50;99.90;;;;;;4767264;30;20482;-85
2021/10/22 01:37:38;;;;;;;1.10;0.90;;;8.40;99.90;;;;;;4769557;30;20517;-83
2021/10/22 01:40:44;;;;;;;0.80;0.80;;;8.30;99.90;;;;;;4769109;30;20051;-88
2021/10/22 01:43:50;;;;;;;3.53;1.05;;;8.30;99.90;;;;;;4752113;30;20729;-86
2021/10/22 01:46:20;;;;;;;0.60;0.60;;;8.30;99.90;;;;;;4769129;30;20542;-84
2021/10/22 01:49:08;;;;;;;0.98;0.93;;;8.40;99.90;;;;;;4769128;30;20052;-88
2021/10/22 01:52:04;;;;;;;2.28;0.88;;;8.40;99.90;;;;;;4769716;30;20055;-86
2021/10/22 01:54:32;;;;;;;0.75;0.70;;;8.40;99.90;;;;;;4765624;30;20078;-84
2021/10/22 01:57:01;;;;;;;2.15;1.05;;;8.40;99.90;;;;;;4771157;30;20434;-83
2021/10/22 01:59:31;;;;;;;1.20;1.10;;;8.40;99.90;;;;;;4737781;30;20063;-85
2021/10/22 02:01:59;;;;;;;1.15;0.90;;;8.40;99.90;;;;;;4754653;30;20055;-87
2021/10/22 02:04:31;;;;;;;2.60;2.17;;;8.40;99.90;;;;;;4769333;30;20067;-84
2021/10/22 02:07:01;;;;;;;0.75;0.75;;;8.40;99.90;;;;;;4752713;30;20060;-84
2021/10/22 02:09:29;;;;;;;1.42;0.80;;;8.40;99.90;;;;;;4768455;30;20052;-83
2021/10/22 02:12:06;;;;;;;0.88;0.70;;;8.40;99.90;;;;;;4768686;30;20048;-87
2021/10/22 02:14:37;;;;;;;3.60;1.15;;;8.40;99.90;;;;;;4767824;30;20499;-83
2021/10/22 02:17:08;;;;;;;1.85;1.15;;;8.40;99.90;;;;;;4768507;30;20040;-84
2021/10/22 02:19:36;;;;;;;0.90;0.90;;;8.40;99.90;;;;;;4769052;30;20047;-83
2021/10/22 02:22:30;;;;;;;1.00;0.82;;;8.30;99.90;;;;;;4768541;30;20062;-87
2021/10/22 02:25:50;;;;;;;1.58;1.48;;;8.30;99.90;;;;;;4767429;30;20055;-89
2021/10/22 02:28:38;;;;;;;;;;;;;;;;;;;;;
2021/10/22 02:31:46;;;;;;;0.70;0.70;;;8.30;99.90;;;;;;4766128;30;20052;-83
2021/10/22 02:34:22;;;;;;;3.75;1.05;;;8.30;99.90;;;;;;4772485;29;20047;-83
2021/10/22 02:36:50;;;;;;;6.85;1.40;;;8.30;99.90;;;;;;4751870;30;20050;-85
2021/10/22 02:39:37;;;;;;;1.52;1.42;;;8.40;99.90;;;;;;4767547;30;20059;-86
2021/10/22 02:42:07;;;;;;;0.73;0.73;;;8.40;99.90;;;;;;4770184;29;20055;-84
2021/10/22 02:44:36;;;;;;;2.00;0.70;;;8.30;99.90;;;;;;4767833;30;20059;-84
2021/10/22 02:47:03;;;;;;;3.30;0.90;;;8.30;99.90;;;;;;4768230;30;20055;-83
2021/10/22 02:49:34;;;;;;;3.72;1.02;;;8.30;99.90;;;;;;4768254;30;20047;-85
2021/10/22 02:52:06;;;;;;;1.60;1.15;;;8.20;99.90;;;;;;4768630;30;20456;-86
2021/10/22 02:54:37;;;;;;;5.80;1.17;;;8.20;99.90;;;;;;4752005;30;20406;-90
2021/10/22 02:57:07;;;;;;;0.98;0.88;;;8.30;99.90;;;;;;4768024;30;20300;-84
2021/10/22 02:59:35;;;;;;;0.80;0.77;;;8.30;99.90;;;;;;4751853;30;20044;-85
2021/10/22 03:02:10;;;;;;;0.75;0.68;;;8.30;99.90;;;;;;4767878;30;20050;-84
2021/10/22 03:04:41;;;;;;;0.75;0.73;;;8.20;99.90;;;;;;4767843;30;20059;-86
2021/10/22 03:07:11;;;;;;;1.48;1.38;;;8.20;99.90;;;;;;4768771;30;20069;-89
2021/10/22 03:09:41;;;;;;;0.60;0.60;;;8.20;99.90;;;;;;4745053;30;20051;-89
2021/10/22 03:12:11;;;;;;;1.33;0.82;;;8.20;99.90;;;;;;4752080;30;20514;-86
2021/10/22 03:14:43;;;;;;;1.27;1.20;;;8.30;99.90;;;;;;4757837;30;20059;-86
2021/10/22 03:17:10;;;;;;;3.80;1.02;;;8.20;99.90;;;;;;4753896;30;20044;-86
2021/10/22 03:19:41;;;;;;;2.75;2.55;;;8.20;99.90;;;;;;4753327;30;20064;-87
2021/10/22 03:22:15;;;;;;;4.68;1.65;;;8.20;99.90;;;;;;4775292;29;20064;-92
2021/10/22 03:24:51;;;;;;;1.50;1.10;;;8.30;99.90;;;;;;4767505;29;20048;-85
2021/10/22 03:27:37;;;;;;;1.95;1.85;;;8.20;99.90;;;;;;4750624;30;20137;-85
2021/10/22 03:30:06;;;;;;;1.30;1.27;;;8.20;99.90;;;;;;4735258;30;20048;-83
2021/10/22 03:32:38;;;;;;;1.48;0.90;;;8.20;99.90;;;;;;4751750;30;20052;-86
2021/10/22 03:35:12;;;;;;;3.28;1.73;;;8.20;99.90;;;;;;4720896;30;20056;-83
2021/10/22 03:38:02;;;;;;;3.20;1.45;;;8.20;99.90;;;;;;4728147;30;20509;-86
2021/10/22 03:41:38;;;;;;;4.53;1.25;;;8.20;99.90;;;;;;4734149;30;20064;-89
2021/10/22 03:44:12;;;;;;;0.95;0.95;;;8.20;99.90;;;;;;4691810;30;20388;-84
2021/10/22 03:46:39;;;;;;;0.80;0.80;;;8.00;99.90;;;;;;4748258;30;20064;-83
2021/10/22 03:49:14;;;;;;;0.77;0.77;;;7.90;99.90;;;;;;4749669;30;20056;-83
2021/10/22 03:51:41;;;;;;;6.53;2.80;;;7.80;99.90;;;;;;4749922;30;20063;-82
2021/10/22 03:54:09;;;;;;;1.08;1.08;;;7.80;99.90;;;;;;4749497;30;20060;-83
2021/10/22 03:56:37;;;;;;;1.40;0.98;;;7.80;99.90;;;;;;4749755;30;20052;-82
2021/10/22 03:59:04;;;;;;;0.77;0.77;;;7.70;99.90;;;;;;4749432;30;20075;-84
2021/10/22 04:01:32;;;;;;;1.75;1.70;;;7.60;99.90;;;;;;4733859;30;20048;-83
2021/10/22 04:04:04;;;;;;;1.00;0.93;;;7.50;99.90;;;;;;4753746;30;20056;-84
2021/10/22 04:06:34;;;;;;;1.10;1.10;;;7.40;99.90;;;;;;4767760;30;20383;-82
2021/10/22 04:09:02;;;;;;;1.40;1.00;;;7.30;99.90;;;;;;4767093;30;20297;-83
2021/10/22 04:11:30;;;;;;;1.10;1.00;;;7.30;99.90;;;;;;4767696;30;20059;-82
2021/10/22 04:14:00;;;;;;;1.23;1.13;;;7.20;99.90;;;;;;4761687;30;20052;-85
2021/10/22 04:16:29;;;;;;;1.23;1.23;;;7.20;99.90;;;;;;4749158;30;20399;-82
2021/10/22 04:18:56;;;;;;;1.20;1.10;;;7.10;99.90;;;;;;4733727;30;20075;-82
2021/10/22 04:21:24;;;;;;;1.10;1.00;;;7.10;99.90;;;;;;4733493;30;20045;-83
2021/10/22 04:23:52;;;;;;;0.82;0.82;;;7.10;99.90;;;;;;4733929;30;20056;-83
2021/10/22 04:26:20;;;;;;;1.30;1.30;;;7.10;99.90;;;;;;4749758;30;20052;-82
2021/10/22 04:28:47;;;;;;;1.08;1.08;;;7.10;99.90;;;;;;4733148;30;20059;-82
2021/10/22 04:31:15;;;;;;;1.08;1.08;;;7.10;99.90;;;;;;4734125;30;20048;-82
2021/10/22 04:33:43;;;;;;;1.70;1.60;;;7.10;99.90;;;;;;4749294;30;20060;-83
2021/10/22 04:36:12;;;;;;;1.65;1.55;;;7.00;99.90;;;;;;4750437;30;20056;-83
2021/10/22 04:41:26;;;;;;;2.90;1.50;;;7.10;99.90;;;;;;4751127;30;20044;-82
2021/10/22 04:43:54;;;;;;;2.42;1.45;;;7.00;99.90;;;;;;4752378;30;20479;-82
2021/10/22 04:46:22;;;;;;;1.42;1.30;;;7.00;99.90;;;;;;4752509;30;20056;-82
2021/10/22 04:48:50;;;;;;;1.20;1.10;;;6.90;99.90;;;;;;4766901;30;20051;-84
2021/10/22 04:51:18;;;;;;;1.48;1.38;;;6.80;99.90;;;;;;4754389;30;20048;-84
2021/10/22 04:53:46;;;;;;;6.07;2.05;;;6.80;99.90;;;;;;4769824;30;20056;-84
2021/10/22 04:56:14;;;;;;;1.60;1.50;;;6.70;99.90;;;;;;4724931;30;20051;-81
2021/10/22 04:58:52;;;;;;;1.00;1.00;;;6.70;99.90;;;;;;4752776;30;20058;-84
2021/10/22 05:01:37;;;;;;;1.30;1.20;;;6.60;99.90;;;;;;4742063;30;20513;-86
2021/10/22 05:04:07;;;;;;;1.95;1.00;;;6.60;99.90;;;;;;4766111;30;20044;-82
2021/10/22 05:06:35;;;;;;;1.80;1.67;;;6.60;99.90;;;;;;4752168;30;20495;-81
2021/10/22 05:09:03;;;;;;;2.67;1.60;;;6.70;99.90;;;;;;4751935;30;20068;-82
2021/10/22 05:11:31;;;;;;;1.63;1.52;;;6.60;99.90;;;;;;4736492;30;20060;-81
2021/10/22 05:13:58;;;;;;;1.48;1.38;;;6.50;99.90;;;;;;4735637;30;20078;-82
2021/10/22 05:16:26;;;;;;;1.83;1.73;;;6.40;99.90;;;;;;4751245;30;20052;-81
2021/10/22 05:18:56;;;;;;;1.60;1.38;;;6.40;99.90;;;;;;4735827;30;20048;-81
2021/10/22 05:21:24;;;;;;;1.38;1.13;;;6.30;99.90;;;;;;4751411;30;20057;-83
2021/10/22 05:23:53;;;;;;;2.17;1.48;;;6.20;99.90;;;;;;4736107;30;20073;-82
2021/10/22 05:26:21;;;;;;;1.63;1.45;;;6.10;99.90;;;;;;4746474;30;20060;-82
2021/10/22 05:28:48;;;;;;;1.40;1.30;;;6.00;99.90;;;;;;4735388;30;20048;-82
2021/10/22 05:31:16;;;;;;;1.27;1.23;;;6.00;99.90;;;;;;4751877;30;20058;-81
2021/10/22 05:33:44;;;;;;;4.28;1.50;;;6.00;99.90;;;;;;4751823;30;20060;-84
2021/10/22 05:36:14;;;;;;;1.40;1.35;;;5.90;99.90;;;;;;4751084;30;20048;-82
2021/10/22 05:38:42;;;;;;;2.13;1.33;;;5.90;99.90;;;;;;4751775;30;20048;-82
2021/10/22 05:41:10;;;;;;;1.60;1.50;;;5.90;99.90;;;;;;4733282;30;20056;-82
2021/10/22 05:43:39;;;;;;;1.60;1.50;;;6.00;99.90;;;;;;4733480;30;20060;-82
2021/10/22 05:46:06;;;;;;;1.40;1.30;;;5.80;99.90;;;;;;4748047;30;20056;-82
2021/10/22 05:48:36;;;;;;;1.42;1.33;;;5.80;99.90;;;;;;4734448;30;20063;-83
2021/10/22 05:51:04;;;;;;;1.73;1.63;;;5.90;99.90;;;;;;4733616;30;20418;-83
2021/10/22 05:53:32;;;;;;;2.33;2.10;;;5.80;99.90;;;;;;4733769;30;20056;-82
2021/10/22 05:56:00;;;;;;;2.05;1.95;;;5.80;99.90;;;;;;4750291;30;20063;-82
2021/10/22 05:58:28;;;;;;;2.05;1.95;;;5.80;99.90;;;;;;4718073;30;20055;-83
2021/10/22 06:00:59;;;;;;;;;;;5.80;99.90;;;;;;4733009;30;20399;-82
2021/10/22 06:03:27;;;;;;;3.35;2.80;;;5.80;99.90;;;;;;4748951;30;19933;-83
2021/10/22 06:05:55;;;;;;;2.63;2.42;;;5.90;99.90;;;;;;4762755;30;20079;-82
2021/10/22 06:08:27;;;;;;;4.03;3.20;;;5.90;99.90;;;;;;4734623;30;20407;-82
2021/10/22 06:10:56;;;;;;;2.50;2.10;;;5.90;99.90;;;;;;4747688;30;20060;-81
2021/10/22 06:13:26;;;;;;;2.55;2.10;;;5.90;99.90;;;;;;4749246;30;20063;-82
2021/10/22 06:15:54;;;;;;;7.63;2.37;;;5.90;99.90;;;;;;4736096;30;20060;-82
2021/10/22 06:18:24;;;;;;;3.42;3.13;;;5.90;99.90;;;;;;4767068;30;20040;-82
2021/10/22 06:20:56;;;;;;;8.63;4.22;;;5.90;99.90;;;;;;4766520;30;20073;-82
2021/10/22 06:26:13;;;;;;;2.47;2.38;;;5.90;99.90;;;;;;4767279;30;20066;-84
2021/10/22 06:28:41;;;;;;;1.52;1.45;;;5.80;99.90;;;;;;4734801;30;20063;-82
2021/10/22 06:31:11;;;;;;;1.85;1.65;;;5.80;99.90;;;;;;4736083;30;20076;-82
2021/10/22 06:33:39;;;;;;;2.42;2.22;;;5.80;99.90;;;;;;4767070;30;20083;-80
2021/10/22 06:36:08;;;;;;;4.63;2.60;;;5.90;99.90;;;;;;4751258;30;20056;-81
2021/10/22 06:38:36;;;;;;;7.18;2.40;;;5.90;99.90;;;;;;4766748;30;20055;-81
2021/10/22 06:41:07;;;;;;;2.15;1.70;;;5.90;99.90;;;;;;4765127;30;20132;-81
2021/10/22 06:43:40;;;;;;;1.52;1.40;;;6.00;99.90;;;;;;4750298;30;20059;-81
2021/10/22 06:46:08;;;;;;;2.25;2.08;;;6.00;99.90;;;;;;4735735;30;20048;-82
2021/10/22 06:48:40;;;;;;;2.08;1.98;;;6.00;99.90;;;;;;4738157;30;20052;-80
2021/10/22 06:51:10;;;;;;;3.22;1.77;;;6.10;99.90;;;;;;4747645;30;20056;-81
2021/10/22 06:53:38;;;;;;;1.80;1.70;;;6.10;99.90;;;;;;4732608;30;20415;-81
2021/10/22 06:56:07;;;;;;;2.10;1.63;;;6.10;99.90;;;;;;4733607;30;20056;-80
2021/10/22 06:58:35;;;;;;;3.95;2.33;;;6.10;99.90;;;;;;4746694;30;20051;-81
2021/10/22 07:01:03;;;;;;;2.50;2.22;;;6.10;99.90;;;;;;4716827;30;20065;-81
2021/10/22 07:04:08;;;;;;;2.20;2.00;;;6.10;99.90;;;;;;4732651;30;20052;-82
2021/10/22 07:09:11;;;;;;;3.13;2.45;;;6.10;99.90;;;;;;4732305;30;20056;-81
2021/10/22 07:11:39;;;;;;;2.33;2.13;;;6.10;99.90;;;;;;4732518;30;20060;-82
2021/10/22 07:14:08;;;;;;;6.10;4.03;;;6.20;99.90;;;;;;4731133;30;20052;-81
2021/10/22 07:16:38;;;;;;;5.90;2.95;;;6.20;99.90;;;;;;4747277;30;20056;-81
2021/10/22 07:19:07;;;;;;;2.58;2.38;;;6.20;99.90;;;;;;4732784;30;20518;-82
2021/10/22 07:21:42;;;;;;;3.88;2.15;;;6.30;99.90;;;;;;4731998;30;20048;-82
2021/10/22 07:24:18;;;;;;;2.75;2.50;;;6.20;99.90;;;;;;4748484;30;20063;-81
2021/10/22 07:26:46;;;;;;;3.75;1.88;;;6.30;99.90;;;;;;4732553;30;20056;-81
2021/10/22 07:29:14;;;;;;;3.65;1.80;;;6.40;99.90;;;;;;4730735;30;20044;-81
2021/10/22 07:31:43;;;;;;;2.58;2.38;;;6.40;99.90;;;;;;4732580;30;20071;-81
2021/10/22 07:34:14;;;;;;;3.97;2.80;;;6.50;99.90;;;;;;4747436;30;20060;-81
2021/10/22 07:36:42;;;;;;;3.78;1.85;;;6.60;99.90;;;;;;4732650;30;20067;-81
2021/10/22 07:39:09;;;;;;;4.50;2.47;;;6.60;99.90;;;;;;4718064;30;20126;-81
2021/10/22 07:41:57;;;;;;;1.88;1.73;;;6.60;99.90;;;;;;4719670;30;20075;-81
2021/10/22 07:44:45;;;;;;;1.73;1.52;;;6.70;99.90;;;;;;4716171;30;20048;-81
2021/10/22 07:47:12;;;;;;;2.72;1.42;;;6.60;99.90;;;;;;4747414;30;20091;-82
2021/10/22 07:49:42;;;;;;;2.25;1.60;;;6.60;99.90;;;;;;4732533;30;20061;-82
2021/10/22 07:52:11;;;;;;;2.20;2.10;;;6.60;99.90;;;;;;4732532;30;20061;-81
2021/10/22 07:54:39;;;;;;;2.78;1.63;;;6.60;99.90;;;;;;4746835;30;20049;-81
2021/10/22 07:57:07;;;;;;;3.00;1.40;;;6.70;99.90;;;;;;4718132;30;20506;-82
2021/10/22 07:59:34;;;;;;;2.55;2.35;;;6.60;99.90;;;;;;4716642;30;20048;-81
2021/10/22 08:02:12;;;;;;;2.20;1.63;;;6.60;99.90;;;;;;4747030;30;20052;-81
2021/10/22 08:04:44;;;;;;;1.73;1.30;;;6.80;99.90;;;;;;4740664;30;20059;-81
2021/10/22 08:07:13;;;;;;;4.13;2.85;;;6.70;99.90;;;;;;4750694;30;20360;-83
2021/10/22 08:09:41;;;;;;;2.88;1.83;;;6.70;99.90;;;;;;4749886;30;20063;-82
2021/10/22 08:12:12;;;;;;;2.83;2.60;;;6.60;99.90;;;;;;4765873;30;20059;-81
2021/10/22 08:14:42;;;;;;;2.50;2.30;;;6.60;99.90;;;;;;4754900;30;20044;-81
2021/10/22 08:17:10;;;;;;;2.05;1.92;;;6.60;99.90;;;;;;4735497;30;20059;-82
2021/10/22 08:19:38;;;;;;;4.65;2.22;;;6.50;99.90;;;;;;4721515;30;20060;-82
2021/10/22 08:24:55;;;;;;;5.30;1.95;;;6.60;99.90;;;;;;4734960;30;20051;-82
2021/10/22 08:27:23;;;;;;;2.53;2.33;;;6.60;99.90;;;;;;4735692;30;20059;-83
2021/10/22 08:29:50;;;;;;;7.20;2.08;;;6.50;99.90;;;;;;4749425;30;20055;-82
2021/10/22 08:32:18;;;;;;;2.47;2.28;;;6.40;99.90;;;;;;4751992;30;20506;-83
2021/10/22 08:34:46;;;;;;;2.47;2.30;;;6.30;99.90;;;;;;4751239;30;20044;-84
2021/10/22 08:37:14;;;;;;;7.13;2.35;;;6.30;99.90;;;;;;4734944;30;20063;-82
2021/10/22 08:39:45;;;;;;;3.38;2.38;;;6.30;99.90;;;;;;4751351;30;20068;-83
2021/10/22 08:42:18;;;;;;;5.68;4.07;;;6.30;99.90;;;;;;4750270;30;20056;-83
2021/10/22 08:44:46;;;;;;;4.75;2.35;;;6.30;99.90;;;;;;4748280;30;20372;-82
2021/10/22 08:47:14;;;;;;;3.63;2.53;;;6.30;99.90;;;;;;4735843;30;20071;-82
2021/10/22 08:49:42;;;;;;;5.43;2.58;;;6.30;99.90;;;;;;4749536;30;20083;-82
2021/10/22 08:52:10;;;;;;;5.35;2.25;;;6.30;99.90;;;;;;4720342;30;20522;-87
2021/10/22 08:54:46;;;;;;;2.28;2.08;;;6.30;99.90;;;;;;4738535;30;20415;-86
2021/10/22 08:57:20;;;;;;;2.40;2.20;;;6.30;99.90;;;;;;4722805;30;20040;-88
2021/10/22 09:00:06;;;;;;;8.32;3.45;;;6.30;99.90;;;;;;4720064;30;20211;-87
2021/10/22 09:02:37;;;;;;;;;;;6.40;99.90;;;;;;4735551;30;20495;-85
2021/10/22 09:05:21;;;;;;;2.85;2.35;;;6.40;99.90;;;;;;4732081;30;20313;-86
2021/10/22 09:08:05;;;;;;;6.63;2.03;;;6.40;99.90;;;;;;4738497;30;20063;-85
2021/10/22 09:10:38;;;;;;;3.65;1.52;;;6.60;99.90;;;;;;4737275;30;20051;-86
2021/10/22 09:13:07;;;;;;;2.58;2.40;;;6.70;99.90;;;;;;4751741;30;20059;-86
2021/10/22 09:15:42;;;;;;;2.05;1.90;;;6.70;99.90;;;;;;4751608;30;20075;-86
2021/10/22 09:18:23;;;;;;;7.82;3.17;;;6.70;99.90;;;;;;4723919;30;20054;-86
2021/10/22 09:21:00;;;;;;;5.75;2.95;;;6.70;99.90;;;;;;4751879;30;20989;-86
2021/10/22 09:23:32;;;;;;;3.40;2.70;;;6.70;99.90;;;;;;4752565;30;20056;-84
2021/10/22 09:26:24;;;;;;;3.13;2.17;;;6.80;99.90;;;;;;4734071;30;20075;-88
2021/10/22 09:28:53;;;;;;;2.63;2.43;;;6.80;99.90;;;;;;4748845;30;20075;-86
2021/10/22 09:31:22;;;;;;;7.82;3.30;;;6.90;99.90;;;;;;4750341;30;20048;-87
2021/10/22 09:34:02;;;;;;;3.92;2.33;;;7.00;99.90;;;;;;4734159;30;20056;-86
2021/10/22 09:36:41;;;;;;;2.10;1.75;;;7.10;99.90;;;;;;4749616;30;20052;-84
2021/10/22 09:39:15;;;;;;;6.97;2.00;;;7.00;99.90;;;;;;4734609;30;20506;-83
2021/10/22 09:41:50;;;;;;;4.50;1.63;;;7.00;99.90;;;;;;4733309;30;20048;-84
2021/10/22 09:44:26;;;;;;;3.28;1.60;;;6.90;99.90;;;;;;4733168;30;20048;-85
2021/10/22 09:47:07;;;;;;;8.20;2.38;;;6.90;99.90;;;;;;4755339;30;20501;-84
2021/10/22 09:49:42;;;;;;;6.57;3.97;;;6.70;99.90;;;;;;4734174;30;20068;-87
2021/10/22 09:52:20;;;;;;;3.20;2.00;;;6.80;99.90;;;;;;4747497;30;20490;-85
2021/10/22 09:55:12;;;;;;;8.43;3.53;;;6.90;99.90;;;;;;4780852;29;20056;-86
2021/10/22 09:58:04;;;;;;;3.65;2.65;;;7.20;99.90;;;;;;4735795;30;20404;-85
2021/10/22 10:00:35;;;;;;;5.40;2.17;;;7.20;99.90;;;;;;4720299;30;20495;-85
2021/10/22 10:03:05;;;;;;;6.55;2.20;;;7.10;99.90;;;;;;4736032;30;20060;-84
2021/10/22 10:05:32;;;;;;;2.42;1.75;;;7.30;99.90;;;;;;4749883;30;20085;-83
2021/10/22 10:08:01;;;;;;;5.07;2.85;;;7.40;99.90;;;;;;4762116;30;20059;-84
2021/10/22 10:10:29;;;;;;;5.80;2.53;;;7.20;99.90;;;;;;4738117;30;20058;-85
2021/10/22 10:12:56;;;;;;;2.83;1.67;;;7.20;99.90;;;;;;4738020;30;20056;-85
2021/10/22 10:15:25;;;;;;;1.70;1.60;;;7.30;99.90;;;;;;4737340;30;20067;-85
2021/10/22 10:17:55;;;;;;;3.28;2.35;;;7.40;99.90;;;;;;4735496;30;20048;-84
2021/10/22 10:20:27;;;;;;;2.67;2.45;;;7.40;99.90;;;;;;4751435;30;20090;-85
2021/10/22 10:22:57;;;;;;;3.42;3.13;;;7.50;99.90;;;;;;4749681;30;20083;-84
2021/10/22 10:25:26;;;;;;;10.00;2.92;;;7.40;99.90;;;;;;4749585;30;20075;-85
2021/10/22 10:27:57;;;;;;;4.75;2.47;;;7.30;99.90;;;;;;4735544;30;20086;-85
2021/10/22 10:30:35;;;;;;;5.88;2.10;;;7.30;99.90;;;;;;4734238;30;20059;-85
2021/10/22 10:33:06;;;;;;;5.47;4.20;;;7.40;99.90;;;;;;4735521;30;20044;-86
2021/10/22 10:35:36;;;;;;;6.70;3.70;;;7.30;99.90;;;;;;4750312;30;20048;-86
2021/10/22 10:38:08;;;;;;;4.83;3.30;;;7.40;99.90;;;;;;4746702;30;20047;-84
2021/10/22 10:40:39;;;;;;;2.38;2.13;;;7.30;99.90;;;;;;4751472;29;20048;-84
2021/10/22 10:43:23;;;;;;;4.97;2.67;;;7.40;99.90;;;;;;4729566;30;20051;-84
2021/10/22 10:45:51;;;;;;;8.52;4.00;;;7.40;99.90;;;;;;4748081;30;20056;-85
2021/10/22 10:48:20;;;;;;;2.60;2.40;;;7.50;99.90;;;;;;4759861;30;20180;-85
2021/10/22 10:50:58;;;;;;;5.57;2.00;;;7.60;99.90;;;;;;4721162;30;20055;-84
2021/10/22 10:53:43;;;;;;;2.67;1.52;;;7.60;99.90;;;;;;4750817;30;20043;-84
2021/10/22 10:56:33;;;;;;;2.60;2.20;;;7.60;99.90;;;;;;4751423;30;20408;-86
2021/10/22 10:59:02;;;;;;;1.92;1.83;;;7.60;99.90;;;;;;4747897;30;20055;-85
2021/10/22 11:01:34;;;;;;;3.05;2.10;;;7.70;99.90;;;;;;4750358;30;20047;-84
2021/10/22 11:04:04;;;;;;;3.42;1.83;;;7.70;99.90;;;;;;4736406;30;20055;-84
2021/10/22 11:06:52;;;;;;;2.20;2.00;;;7.70;99.90;;;;;;4750894;30;20055;-85
2021/10/22 11:09:28;;;;;;;4.97;2.75;;;7.90;99.90;;;;;;4735898;30;20464;-84
2021/10/22 11:12:04;;;;;;;2.25;2.15;;;8.00;99.90;;;;;;4750554;30;20059;-84
2021/10/22 11:14:50;;;;;;;2.28;1.92;;;8.00;99.90;;;;;;4734002;30;20055;-85
2021/10/22 11:17:30;;;;;;;2.97;1.40;;;8.00;99.90;;;;;;4735705;30;20044;-85
2021/10/22 11:20:06;;;;;;;3.15;2.95;;;7.80;99.90;;;;;;4750386;30;20070;-84
2021/10/22 11:22:35;;;;;;;1.00;1.00;;;7.80;99.90;;;;;;4735512;30;20537;-84
2021/10/22 11:25:02;;;;;;;2.40;2.00;;;7.90;99.90;;;;;;4732226;30;20048;-85
2021/10/22 11:27:30;;;;;;;3.28;1.38;;;7.90;99.90;;;;;;4733037;30;20068;-85
2021/10/22 11:30:00;;;;;;;5.35;2.38;;;8.00;99.90;;;;;;4730072;30;20514;-86
2021/10/22 11:32:30;;;;;;;2.90;1.30;;;8.10;99.90;;;;;;4747395;30;20137;-83
2021/10/22 11:35:01;;;;;;;2.70;2.25;;;8.10;99.90;;;;;;4733050;30;20433;-85
2021/10/22 11:37:33;;;;;;;2.63;1.48;;;7.90;99.90;;;;;;4732679;30;20040;-84
2021/10/22 11:40:04;;;;;;;1.48;1.30;;;7.90;99.90;;;;;;4732388;30;20068;-83
2021/10/22 11:42:34;;;;;;;3.38;1.38;;;8.10;99.90;;;;;;4732399;30;20052;-84
2021/10/22 11:45:07;;;;;;;3.97;1.60;;;8.10;99.90;;;;;;4731279;30;20049;-85
2021/10/22 11:47:47;;;;;;;4.65;2.17;;;8.10;99.90;;;;;;4733445;30;20048;-84
2021/10/22 11:50:20;;;;;;;4.30;1.95;;;8.00;99.90;;;;;;4733802;30;20048;-84
2021/10/22 11:52:59;;;;;;;1.95;1.42;;;8.10;99.90;;;;;;4721614;30;20067;-85
2021/10/22 11:55:29;;;;;;;1.77;1.67;;;8.40;99.90;;;;;;4736602;30;20056;-85
2021/10/22 11:58:05;;;;;;;4.68;2.08;;;8.70;99.90;;;;;;4736153;30;20048;-85
2021/10/22 12:00:33;;;;;;;2.83;2.45;;;8.90;99.90;;;;;;4734271;30;20523;-85
2021/10/22 12:03:01;;;;;;;2.85;1.65;;;9.10;99.90;;;;;;4736294;30;20063;-85
2021/10/22 12:05:32;;;;;;;3.17;1.90;;;9.00;99.90;;;;;;4734207;30;20054;-83
2021/10/22 12:07:59;;;;;;;1.70;1.50;;;8.50;99.90;;;;;;4739232;30;20056;-85
2021/10/22 12:10:27;;;;;;;1.73;1.63;;;8.20;99.90;;;;;;4737617;30;20040;-85
2021/10/22 12:12:56;;;;;;;4.07;2.28;;;8.30;99.90;;;;;;4738610;30;20059;-85
2021/10/22 12:15:29;;;;;;;9.98;3.72;;;8.40;99.90;;;;;;4752047;30;20056;-84
2021/10/22 12:18:06;;;;;;;5.75;2.95;;;8.40;99.90;;;;;;4753234;30;20056;-84
2021/10/22 12:20:35;;;;;;;1.80;1.70;;;8.20;99.90;;;;;;4768780;30;20050;-85
2021/10/22 12:23:04;;;;;;;2.50;1.83;;;8.10;99.90;;;;;;4753677;30;20076;-85
2021/10/22 12:25:33;;;;;;;4.90;1.65;;;8.30;99.90;;;;;;4738546;30;20494;-85
2021/10/22 12:28:13;;;;;;;2.30;2.10;;;8.40;99.90;;;;;;4753395;30;20063;-86
2021/10/22 12:30:46;;;;;;;1.48;1.30;;;8.40;99.90;;;;;;4751280;30;20058;-85
2021/10/22 12:33:14;;;;;;;3.17;2.53;;;8.40;99.90;;;;;;4724256;30;20052;-86
2021/10/22 12:35:54;;;;;;;6.60;1.98;;;8.40;99.90;;;;;;4738882;30;20062;-85
2021/10/22 12:38:32;;;;;;;2.20;2.10;;;8.20;99.90;;;;;;4724126;30;20043;-85
2021/10/22 12:41:10;;;;;;;1.85;1.35;;;8.20;99.90;;;;;;4768123;30;20053;-86
2021/10/22 12:43:43;;;;;;;2.35;2.15;;;8.40;99.90;;;;;;4737697;30;20056;-88
2021/10/22 12:46:16;;;;;;;3.80;1.35;;;8.70;99.90;;;;;;4729840;30;20052;-83
2021/10/22 12:48:59;;;;;;;2.60;2.40;;;9.00;99.90;;;;;;4765543;30;20322;-88
2021/10/22 12:51:41;;;;;;;2.45;1.77;;;9.20;99.90;;;;;;4752983;30;20056;-86
2021/10/22 12:54:18;;;;;;;5.65;2.50;;;9.40;99.90;;;;;;4737198;30;20051;-84
2021/10/22 12:56:54;;;;;;;3.70;1.95;;;9.00;99.90;;;;;;4766999;30;20414;-85
2021/10/22 12:59:24;;;;;;;2.55;2.05;;;8.70;99.90;;;;;;4750776;30;20429;-86
2021/10/22 13:01:55;;;;;;;1.98;1.88;;;8.50;99.90;;;;;;4739162;30;20055;-83
2021/10/22 13:04:26;;;;;;;1.67;1.58;;;8.50;99.90;;;;;;4761842;30;20067;-85
2021/10/22 13:07:09;;;;;;;2.00;1.27;;;8.60;99.90;;;;;;4735362;30;20342;-86
2021/10/22 13:10:02;;;;;;;5.60;1.95;;;8.80;99.90;;;;;;4749276;30;20507;-85
2021/10/22 13:20:45;;;;;;;3.60;1.80;;;9.50;99.90;;;;;;4736289;30;20048;-84
2021/10/22 13:23:15;;;;;;;2.40;1.38;;;9.40;99.90;;;;;;4722077;30;20056;-83
2021/10/22 13:25:45;;;;;;;2.05;1.90;;;9.40;99.90;;;;;;4736009;30;20052;-84
2021/10/22 13:28:18;;;;;;;2.30;1.80;;;9.30;99.90;;;;;;4736646;30;20063;-85
2021/10/22 13:30:52;;;;;;;3.00;1.73;;;9.20;99.90;;;;;;4750155;30;20452;-84
2021/10/22 13:33:27;;;;;;;1.20;1.10;;;9.10;99.90;;;;;;4751032;30;20052;-83
2021/10/22 13:35:57;;;;;;;2.55;2.35;;;9.00;99.90;;;;;;4708026;30;20060;-86
2021/10/22 13:38:25;;;;;;;2.33;2.13;;;8.90;99.90;;;;;;4736485;30;20522;-85
2021/10/22 13:40:54;;;;;;;5.28;1.40;;;8.80;99.90;;;;;;4721418;30;20051;-84
2021/10/22 13:43:21;;;;;;;6.70;3.67;;;8.90;99.90;;;;;;4707254;30;20056;-84
2021/10/22 13:45:49;;;;;;;7.30;2.22;;;8.90;99.90;;;;;;4721296;30;20052;-83
2021/10/22 13:48:17;;;;;;;3.67;1.58;;;8.80;99.90;;;;;;4736615;30;20068;-83
2021/10/22 13:50:46;;;;;;;3.25;1.25;;;8.70;99.90;;;;;;4752021;30;20083;-86